createdAt,value
2023-03-13T00:01:37.626Z,16.80
2023-03-13T00:04:05.922Z,16.43
2023-03-13T00:06:36.899Z,18.87
2023-03-13T00:09:06.943Z,15.63
2023-03-13T00:11:34.886Z,15.40
2023-03-13T00:14:04.257Z,16.07
2023-03-13T00:16:34.405Z,15.33
2023-03-13T00:19:02.195Z,16.17
2023-03-13T00:21:33.337Z,18.37
2023-03-13T00:24:01.219Z,18.97
2023-03-13T00:26:30.310Z,16.67
2023-03-13T00:28:58.263Z,15.40
2023-03-13T00:31:33.124Z,17.53
2023-03-13T00:34:02.809Z,18.70
2023-03-13T00:36:33.139Z,18.83
2023-03-13T00:39:01.054Z,15.47
2023-03-13T00:41:31.434Z,19.70
2023-03-13T00:44:02.068Z,16.37
2023-03-13T00:46:30.452Z,15.60
2023-03-13T00:48:58.415Z,16.30
2023-03-13T00:51:27.236Z,20.70
2023-03-13T00:53:56.890Z,16.90
2023-03-13T00:56:24.559Z,17.70
2023-03-13T00:58:52.249Z,14.07
2023-03-13T01:01:23.221Z,16.60
2023-03-13T01:03:56.948Z,14.67
2023-03-13T01:06:29.382Z,16.90
2023-03-13T01:08:57.013Z,17.30
2023-03-13T01:11:30.399Z,15.77
2023-03-13T01:14:01.214Z,18.37
2023-03-13T01:16:31.293Z,14.00
2023-03-13T01:19:05.717Z,16.17
2023-03-13T01:21:33.703Z,16.87
2023-03-13T01:24:01.337Z,19.67
2023-03-13T01:26:29.175Z,16.67
2023-03-13T01:28:57.442Z,17.60
2023-03-13T01:31:28.872Z,16.67
2023-03-13T01:33:59.326Z,16.57
2023-03-13T01:36:27.871Z,14.27
2023-03-13T01:38:58.423Z,16.63
2023-03-13T01:41:28.020Z,15.60
2023-03-13T01:43:55.732Z,19.60
2023-03-13T01:46:25.420Z,17.63
2023-03-13T01:49:10.120Z,13.50
2023-03-13T01:51:43.560Z,16.07
2023-03-13T01:54:29.449Z,16.07
2023-03-13T01:57:05.976Z,17.40
2023-03-13T01:59:57.008Z,14.37
2023-03-13T02:02:29.601Z,18.07
2023-03-13T02:05:01.957Z,17.23
2023-03-13T02:07:58.721Z,16.43
2023-03-13T02:10:29.583Z,13.67
2023-03-13T02:12:58.373Z,15.37
2023-03-13T02:15:28.186Z,15.73
2023-03-13T02:17:56.992Z,15.93
2023-03-13T02:20:25.287Z,16.67
2023-03-13T02:23:01.395Z,16.70
2023-03-13T02:25:41.771Z,14.43
2023-03-13T02:28:21.870Z,15.87
2023-03-13T02:30:54.246Z,16.80
2023-03-13T02:33:26.266Z,13.00
2023-03-13T02:35:54.671Z,17.63
2023-03-13T02:38:25.257Z,13.57
2023-03-13T02:40:57.472Z,11.50
2023-03-13T02:43:36.945Z,12.60
2023-03-13T02:46:12.660Z,9.03
2023-03-13T02:48:43.637Z,6.80
2023-03-13T02:51:32.683Z,10.67
2023-03-13T02:54:08.710Z,10.03
2023-03-13T02:56:38.549Z,12.17
2023-03-13T02:59:07.155Z,8.83
2023-03-13T03:01:37.106Z,6.37
2023-03-13T03:04:07.849Z,9.97
2023-03-13T03:06:35.589Z,13.57
2023-03-13T03:09:03.662Z,6.80
2023-03-13T03:11:31.253Z,7.50
2023-03-13T03:13:58.980Z,10.53
2023-03-13T03:16:26.695Z,9.23
2023-03-13T03:18:54.413Z,7.90
2023-03-13T03:21:23.764Z,6.73
2023-03-13T03:23:51.785Z,8.90
2023-03-13T03:26:19.660Z,4.97
2023-03-13T03:28:47.278Z,5.90
2023-03-13T03:31:16.391Z,3.60
2023-03-13T03:33:44.866Z,8.60
2023-03-13T03:36:15.562Z,5.23
2023-03-13T03:38:43.476Z,7.33
2023-03-13T03:41:13.934Z,4.47
2023-03-13T03:43:42.285Z,4.60
2023-03-13T03:46:09.964Z,9.90
2023-03-13T03:48:37.784Z,6.30
2023-03-13T03:51:05.938Z,3.77
2023-03-13T03:53:36.546Z,5.27
2023-03-13T03:56:04.509Z,4.23
2023-03-13T03:58:32.144Z,6.90
2023-03-13T04:01:00.274Z,2.70
2023-03-13T04:03:27.988Z,3.47
2023-03-13T04:05:55.710Z,3.93
2023-03-13T04:08:24.445Z,4.83
2023-03-13T04:10:52.515Z,6.03
2023-03-13T04:13:20.224Z,3.93
2023-03-13T04:15:48.788Z,5.17
2023-03-13T04:18:16.689Z,1.90
2023-03-13T04:20:44.681Z,1.77
2023-03-13T04:23:12.384Z,2.10
2023-03-13T04:25:42.845Z,2.00
2023-03-13T04:28:10.440Z,1.77
2023-03-13T04:30:38.057Z,2.73
2023-03-13T04:33:05.757Z,2.27
2023-03-13T04:35:33.981Z,2.30
2023-03-13T04:38:04.414Z,2.03
2023-03-13T04:40:34.986Z,1.63
2023-03-13T04:43:02.583Z,2.80
2023-03-13T04:45:30.260Z,1.73
2023-03-13T04:47:57.887Z,2.57
2023-03-13T04:50:25.508Z,2.03
2023-03-13T04:52:56.057Z,1.80
2023-03-13T04:55:24.099Z,1.53
2023-03-13T04:57:51.676Z,2.90
2023-03-13T05:00:19.624Z,1.90
2023-03-13T05:02:48.741Z,1.40
2023-03-13T05:05:16.508Z,2.57
2023-03-13T05:07:44.101Z,2.27
2023-03-13T05:10:11.750Z,2.40
2023-03-13T05:12:39.399Z,2.57
2023-03-13T05:15:07.604Z,1.73
2023-03-13T05:17:35.388Z,1.97
2023-03-13T05:20:04.142Z,2.37
2023-03-13T05:22:31.793Z,2.30
2023-03-13T05:24:59.411Z,2.50
2023-03-13T05:27:27.022Z,2.50
2023-03-13T05:29:54.623Z,3.30
2023-03-13T05:32:22.348Z,3.13
2023-03-13T05:34:49.966Z,3.63
2023-03-13T05:37:17.662Z,2.60
2023-03-13T05:39:45.228Z,2.23
2023-03-13T05:42:12.836Z,2.30
2023-03-13T05:44:40.432Z,2.23
2023-03-13T05:47:10.549Z,2.77
2023-03-13T05:49:38.174Z,2.20
2023-03-13T05:52:05.837Z,1.83
2023-03-13T05:54:33.434Z,2.30
2023-03-13T05:57:01.182Z,1.77
2023-03-13T05:59:29.681Z,2.97
2023-03-13T06:01:57.288Z,2.73
2023-03-13T06:04:25.109Z,2.60
2023-03-13T06:06:52.809Z,1.53
2023-03-13T06:09:20.708Z,1.40
2023-03-13T06:11:48.381Z,2.00
2023-03-13T06:14:15.980Z,1.60
2023-03-13T06:16:43.660Z,1.37
2023-03-13T06:19:11.851Z,1.30
2023-03-13T06:21:45.146Z,1.50
2023-03-13T06:24:12.738Z,2.10
2023-03-13T06:26:40.336Z,1.50
2023-03-13T06:29:07.899Z,1.70
2023-03-13T06:31:38.453Z,1.70
2023-03-13T06:34:06.226Z,1.30
2023-03-13T06:36:34.029Z,1.50
2023-03-13T06:39:01.714Z,1.60
2023-03-13T06:41:29.514Z,1.90
2023-03-13T06:43:57.119Z,1.57
2023-03-13T06:46:25.938Z,1.20
2023-03-13T06:48:56.666Z,2.20
2023-03-13T06:51:27.571Z,2.37
2023-03-13T06:53:55.244Z,1.37
2023-03-13T06:56:23.339Z,1.37
2023-03-13T06:58:51.046Z,2.33
2023-03-13T07:01:18.858Z,1.33
2023-03-13T07:03:48.017Z,3.07
2023-03-13T07:06:16.736Z,1.57
2023-03-13T07:08:44.631Z,1.87
2023-03-13T07:11:14.205Z,1.90
2023-03-13T07:13:42.330Z,2.30
2023-03-13T07:16:13.147Z,1.70
2023-03-13T07:18:47.349Z,1.90
2023-03-13T07:21:15.403Z,1.93
2023-03-13T07:23:43.077Z,1.63
2023-03-13T07:26:13.577Z,1.90
2023-03-13T07:28:41.507Z,4.03
2023-03-13T07:31:21.622Z,1.60
2023-03-13T07:33:49.535Z,1.57
2023-03-13T07:36:17.851Z,2.47
2023-03-13T07:38:48.574Z,1.93
2023-03-13T07:41:16.737Z,1.57
2023-03-13T07:43:45.685Z,3.43
2023-03-13T07:46:15.763Z,2.07
2023-03-13T07:48:43.488Z,2.67
2023-03-13T07:51:33.477Z,3.83
2023-03-13T07:54:08.309Z,3.23
2023-03-13T07:56:35.901Z,3.17
2023-03-13T07:59:03.527Z,3.30
2023-03-13T08:01:31.563Z,2.10
2023-03-13T08:04:02.133Z,3.30
2023-03-13T08:06:37.351Z,2.50
2023-03-13T08:09:05.623Z,2.53
2023-03-13T08:11:33.988Z,7.90
2023-03-13T08:14:01.949Z,2.30
2023-03-13T08:16:34.132Z,5.73
2023-03-13T08:19:05.076Z,6.87
2023-03-13T08:21:37.821Z,4.20
2023-03-13T08:24:10.879Z,5.13
2023-03-13T08:26:40.790Z,3.37
2023-03-13T08:29:14.240Z,2.77
2023-03-13T08:31:51.503Z,3.50
2023-03-13T08:34:19.400Z,4.17
2023-03-13T08:36:47.422Z,7.17
2023-03-13T08:39:17.568Z,4.03
2023-03-13T08:41:45.410Z,4.50
2023-03-13T08:44:21.534Z,4.90
2023-03-13T08:46:49.810Z,3.90
2023-03-13T08:49:18.348Z,3.20
2023-03-13T08:51:46.043Z,3.87
2023-03-13T08:54:13.645Z,1.70
2023-03-13T08:56:43.535Z,2.33
2023-03-13T08:59:11.132Z,1.83
2023-03-13T09:01:41.407Z,5.87
2023-03-13T09:04:09.129Z,4.37
2023-03-13T09:06:38.619Z,1.60
2023-03-13T09:09:08.983Z,2.20
2023-03-13T09:11:39.233Z,4.10
2023-03-13T09:14:10.837Z,3.20
2023-03-13T09:16:38.636Z,3.17
2023-03-13T09:19:06.712Z,3.40
2023-03-13T09:21:35.874Z,2.13
2023-03-13T09:24:03.797Z,3.67
2023-03-13T09:26:31.511Z,3.00
2023-03-13T09:28:59.294Z,4.10
2023-03-13T09:31:31.591Z,3.17
2023-03-13T09:34:00.260Z,4.47
2023-03-13T09:36:28.398Z,3.37
2023-03-13T09:38:59.858Z,3.77
2023-03-13T09:41:34.558Z,3.90
2023-03-13T09:44:23.205Z,2.83
2023-03-13T09:46:53.873Z,4.20
2023-03-13T09:49:33.082Z,3.53
2023-03-13T09:52:09.845Z,6.13
2023-03-13T09:54:49.183Z,5.50
2023-03-13T09:57:20.209Z,3.13
2023-03-13T09:59:55.043Z,4.73
2023-03-13T10:02:36.569Z,4.00
2023-03-13T10:05:21.778Z,3.47
2023-03-13T10:07:49.664Z,2.83
2023-03-13T10:10:21.649Z,3.20
2023-03-13T10:12:53.922Z,4.50
2023-03-13T10:15:37.152Z,3.70
2023-03-13T10:18:22.560Z,3.77
2023-03-13T10:20:56.757Z,4.43
2023-03-13T10:23:40.579Z,2.83
2023-03-13T10:26:21.354Z,7.00
2023-03-13T10:28:51.471Z,4.03
2023-03-13T10:31:31.448Z,3.07
2023-03-13T10:34:14.639Z,3.63
2023-03-13T10:36:45.015Z,4.70
2023-03-13T10:39:21.475Z,5.60
2023-03-13T10:41:51.036Z,3.17
2023-03-13T10:44:22.963Z,4.90
2023-03-13T10:46:51.362Z,4.30
2023-03-13T10:49:21.553Z,6.07
2023-03-13T10:51:53.696Z,3.97
2023-03-13T10:54:35.192Z,5.80
2023-03-13T10:57:24.879Z,6.50
2023-03-13T10:59:54.069Z,3.30
2023-03-13T11:02:38.380Z,5.07
2023-03-13T11:05:32.531Z,5.77
2023-03-13T11:08:12.232Z,6.27
2023-03-13T11:10:52.830Z,7.40
2023-03-13T11:13:37.134Z,6.50
2023-03-13T11:16:28.121Z,6.47
2023-03-13T11:19:14.010Z,6.57
2023-03-13T11:22:03.665Z,4.97
2023-03-13T11:24:44.101Z,5.90
2023-03-13T11:27:32.835Z,8.90
2023-03-13T11:30:22.801Z,4.13
2023-03-13T11:33:12.396Z,6.43
2023-03-13T11:35:54.004Z,7.13
2023-03-13T11:38:40.708Z,5.17
2023-03-13T11:41:45.067Z,6.60
2023-03-13T11:44:30.895Z,5.80
2023-03-13T11:46:59.684Z,4.73
2023-03-13T11:50:01.560Z,4.37
2023-03-13T11:52:40.605Z,4.47
2023-03-13T11:55:34.697Z,6.13
2023-03-13T11:58:23.560Z,4.63
2023-03-13T12:00:56.771Z,4.00
2023-03-13T12:03:34.608Z,6.23
2023-03-13T12:06:27.138Z,5.03
2023-03-13T12:09:04.733Z,5.33
2023-03-13T12:11:55.240Z,8.13
2023-03-13T12:14:27.849Z,5.37
2023-03-13T12:17:03.299Z,7.67
2023-03-13T12:19:41.263Z,6.70
2023-03-13T12:22:27.259Z,7.73
2023-03-13T12:25:24.776Z,9.33
2023-03-13T12:28:13.029Z,11.70
2023-03-13T12:30:45.059Z,5.03
2023-03-13T12:33:40.004Z,5.63
2023-03-13T12:36:20.412Z,5.30
2023-03-13T12:38:59.224Z,4.53
2023-03-13T12:41:41.956Z,5.03
2023-03-13T12:44:13.914Z,10.63
2023-03-13T12:46:48.545Z,5.20
2023-03-13T12:49:35.165Z,4.57
2023-03-13T12:52:18.048Z,4.97
2023-03-13T12:54:57.146Z,5.60
2023-03-13T12:57:54.863Z,9.88
2023-03-13T13:00:26.615Z,4.93
2023-03-13T13:03:17.973Z,4.82
2023-03-13T13:06:13.848Z,3.75
2023-03-13T13:08:54.101Z,3.58
2023-03-13T13:11:34.193Z,2.92
2023-03-13T13:14:05.994Z,2.67
2023-03-13T13:16:34.000Z,3.20
2023-03-13T13:19:23.378Z,6.13
2023-03-13T13:22:28.919Z,6.20
2023-03-13T13:24:59.246Z,3.30
2023-03-13T13:27:33.210Z,3.88
2023-03-13T13:30:24.498Z,4.35
2023-03-13T13:32:56.735Z,4.75
2023-03-13T13:35:29.093Z,3.35
2023-03-13T13:38:18.412Z,2.60
2023-03-13T13:41:00.564Z,2.67
2023-03-13T13:43:33.486Z,2.03
2023-03-13T13:46:06.322Z,1.90
2023-03-13T13:48:39.925Z,2.72
2023-03-13T13:51:07.719Z,2.35
2023-03-13T13:53:46.231Z,4.65
2023-03-13T13:56:42.458Z,9.87
2023-03-13T13:59:22.416Z,5.93
2023-03-13T14:02:07.847Z,8.50
2023-03-13T14:05:01.828Z,2.45
2023-03-13T14:07:41.500Z,3.90
2023-03-13T14:10:17.936Z,8.13
2023-03-13T14:12:51.565Z,3.53
2023-03-13T14:15:24.491Z,3.45
2023-03-13T14:17:53.691Z,2.28
2023-03-13T14:20:34.713Z,2.22
2023-03-13T14:23:08.297Z,2.35
2023-03-13T14:25:48.108Z,1.77
2023-03-13T14:28:27.705Z,1.98
2023-03-13T14:30:58.347Z,3.17
2023-03-13T14:33:32.328Z,3.40
2023-03-13T14:36:00.311Z,7.60
2023-03-13T14:38:32.913Z,2.17
2023-03-13T14:41:00.612Z,6.90
2023-03-13T14:43:35.963Z,3.40
2023-03-13T14:46:21.685Z,2.93
2023-03-13T14:48:49.633Z,3.67
2023-03-13T14:51:25.537Z,3.30
2023-03-13T14:54:01.476Z,4.67
2023-03-13T14:56:43.296Z,1.83
2023-03-13T14:59:23.505Z,2.73
2023-03-13T15:02:04.514Z,1.37
2023-03-13T15:05:01.041Z,1.13
2023-03-13T15:07:37.406Z,1.33
2023-03-13T15:10:30.271Z,2.97
2023-03-13T15:12:57.994Z,1.47
2023-03-13T15:15:25.873Z,1.73
2023-03-13T15:17:53.515Z,2.83
2023-03-13T15:20:22.995Z,1.10
2023-03-13T15:22:50.654Z,1.50
2023-03-13T15:25:23.369Z,1.87
2023-03-13T15:27:51.484Z,1.27
2023-03-13T15:30:23.066Z,1.87
2023-03-13T15:32:51.909Z,1.90
2023-03-13T15:35:30.446Z,1.77
2023-03-13T15:38:00.411Z,5.40
2023-03-13T15:40:30.831Z,3.30
2023-03-13T15:42:59.492Z,4.63
2023-03-13T15:45:27.137Z,3.17
2023-03-13T15:47:54.956Z,4.47
2023-03-13T15:50:29.509Z,2.70
2023-03-13T15:53:00.898Z,3.40
2023-03-13T15:55:29.309Z,3.60
2023-03-13T15:57:57.086Z,1.70
2023-03-13T16:00:26.715Z,3.07
2023-03-13T16:02:54.322Z,4.47
2023-03-13T16:05:22.104Z,3.63
2023-03-13T16:07:49.658Z,5.13
2023-03-13T16:10:22.559Z,4.13
2023-03-13T16:12:52.525Z,3.27
2023-03-13T16:15:20.704Z,3.13
2023-03-13T16:17:48.299Z,2.43
2023-03-13T16:20:20.894Z,3.23
2023-03-13T16:22:48.473Z,2.23
2023-03-13T16:25:16.181Z,3.77
2023-03-13T16:27:43.845Z,2.03
2023-03-13T16:30:32.895Z,1.43
2023-03-13T16:33:00.978Z,5.00
2023-03-13T16:35:29.360Z,2.47
2023-03-13T16:37:58.286Z,1.27
2023-03-13T16:40:29.218Z,2.70
2023-03-13T16:42:56.984Z,4.17
2023-03-13T16:45:25.416Z,2.07
2023-03-13T16:47:53.611Z,2.27
2023-03-13T16:50:23.309Z,1.73
2023-03-13T16:52:51.714Z,2.83
2023-03-13T16:55:20.655Z,3.07
2023-03-13T16:57:48.340Z,4.37
2023-03-13T17:00:19.317Z,4.10
2023-03-13T17:02:48.178Z,2.20
2023-03-13T17:05:16.251Z,4.37
2023-03-13T17:07:48.222Z,3.63
2023-03-13T17:10:18.814Z,3.20
2023-03-13T17:12:46.894Z,2.23
2023-03-13T17:15:14.911Z,2.13
2023-03-13T17:17:45.520Z,3.47
2023-03-13T17:20:14.791Z,4.97
2023-03-13T17:22:42.602Z,2.67
2023-03-13T17:25:10.616Z,3.43
2023-03-13T17:27:39.108Z,5.70
2023-03-13T17:30:26.010Z,3.17
2023-03-13T17:32:54.316Z,5.03
2023-03-13T17:35:23.168Z,4.40
2023-03-13T17:37:51.040Z,3.40
2023-03-13T17:40:21.907Z,3.30
2023-03-13T17:42:49.803Z,5.20
2023-03-13T17:45:18.399Z,2.87
2023-03-13T17:47:46.341Z,3.00
2023-03-13T17:50:20.111Z,3.57
2023-03-13T17:52:47.851Z,3.97
2023-03-13T17:55:15.599Z,3.27
2023-03-13T17:57:43.888Z,2.77
2023-03-13T18:00:29.081Z,6.43
2023-03-13T18:02:57.118Z,4.70
2023-03-13T18:05:25.903Z,3.23
2023-03-13T18:07:55.753Z,14.07
2023-03-13T18:10:26.354Z,5.90
2023-03-13T18:12:54.645Z,6.97
2023-03-13T18:15:24.354Z,4.00
2023-03-13T18:17:52.744Z,5.27
2023-03-13T18:20:23.436Z,4.30
2023-03-13T18:22:51.012Z,3.93
2023-03-13T18:25:19.394Z,5.37
2023-03-13T18:27:46.982Z,4.97
2023-03-13T18:30:20.796Z,3.57
2023-03-13T18:32:48.997Z,3.60
2023-03-13T18:35:17.485Z,9.10
2023-03-13T18:37:47.253Z,3.97
2023-03-13T18:40:23.656Z,4.10
2023-03-13T18:42:51.319Z,1.87
2023-03-13T18:45:25.084Z,5.70
2023-03-13T18:47:53.292Z,2.23
2023-03-13T18:50:26.564Z,2.10
2023-03-13T18:52:58.597Z,3.37
2023-03-13T18:55:28.864Z,2.30
2023-03-13T18:57:56.864Z,3.03
2023-03-13T19:00:30.194Z,1.47
2023-03-13T19:02:57.914Z,1.80
2023-03-13T19:05:25.809Z,2.23
2023-03-13T19:07:53.488Z,1.17
2023-03-13T19:10:24.150Z,0.80
2023-03-13T19:12:53.795Z,0.80
2023-03-13T19:15:24.423Z,1.10
2023-03-13T19:17:52.865Z,1.40
2023-03-13T19:20:22.741Z,0.90
2023-03-13T19:22:50.339Z,1.37
2023-03-13T19:25:18.163Z,1.93
2023-03-13T19:27:47.520Z,1.73
2023-03-13T19:30:23.601Z,2.50
2023-03-13T19:32:51.945Z,2.73
2023-03-13T19:35:21.657Z,2.90
2023-03-13T19:37:49.762Z,1.50
2023-03-13T19:40:28.410Z,2.10
2023-03-13T19:42:56.085Z,1.33
2023-03-13T19:45:23.673Z,0.90
2023-03-13T19:47:51.264Z,1.47
2023-03-13T19:50:22.216Z,2.83
2023-03-13T19:52:50.078Z,3.53
2023-03-13T19:55:17.781Z,2.07
2023-03-13T19:57:45.462Z,4.30
2023-03-13T20:00:21.803Z,2.23
2023-03-13T20:02:51.912Z,1.83
2023-03-13T20:05:19.550Z,2.40
2023-03-13T20:07:48.229Z,4.83
2023-03-13T20:10:16.223Z,2.90
2023-03-13T20:12:43.855Z,0.70
2023-03-13T20:15:11.779Z,1.33
2023-03-13T20:17:39.386Z,2.20
2023-03-13T20:20:08.442Z,2.73
2023-03-13T20:22:36.103Z,1.17
2023-03-13T20:25:04.014Z,3.43
2023-03-13T20:27:31.676Z,1.47
2023-03-13T20:30:00.715Z,2.30
2023-03-13T20:32:28.524Z,5.13
2023-03-13T20:34:56.281Z,1.67
2023-03-13T20:37:23.860Z,3.27
2023-03-13T20:39:51.448Z,2.70
2023-03-13T20:42:20.813Z,3.63
2023-03-13T20:44:48.457Z,2.37
2023-03-13T20:47:16.216Z,3.13
2023-03-13T20:49:43.810Z,2.37
2023-03-13T20:52:11.456Z,3.53
2023-03-13T20:54:39.084Z,1.60
2023-03-13T20:57:08.493Z,1.40
2023-03-13T20:59:36.111Z,1.37
2023-03-13T21:02:04.035Z,1.23
2023-03-13T21:04:31.882Z,1.60
2023-03-13T21:07:04.432Z,1.00
2023-03-13T21:09:34.019Z,1.10
2023-03-13T21:12:02.067Z,1.03
2023-03-13T21:14:30.145Z,1.60
2023-03-13T21:16:57.801Z,1.67
2023-03-13T21:19:28.529Z,1.90
2023-03-13T21:21:58.692Z,1.20
2023-03-13T21:24:26.359Z,1.47
2023-03-13T21:26:55.244Z,2.40
2023-03-13T21:29:23.016Z,1.60
2023-03-13T21:31:50.666Z,1.40
2023-03-13T21:34:18.279Z,1.40
2023-03-13T21:36:45.915Z,1.87
2023-03-13T21:39:13.561Z,1.73
2023-03-13T21:41:41.115Z,1.57
2023-03-13T21:44:08.746Z,1.90
2023-03-13T21:46:36.435Z,1.27
2023-03-13T21:49:04.117Z,1.97
2023-03-13T21:51:31.776Z,2.73
2023-03-13T21:53:59.371Z,2.17
2023-03-13T21:56:26.963Z,1.53
2023-03-13T21:58:54.735Z,1.90
2023-03-13T22:01:22.508Z,1.30
2023-03-13T22:03:50.824Z,0.70
2023-03-13T22:06:22.153Z,1.83
2023-03-13T22:08:50.804Z,1.80
2023-03-13T22:11:18.862Z,3.43
2023-03-13T22:13:46.511Z,1.50
2023-03-13T22:16:14.184Z,2.87
2023-03-13T22:18:43.138Z,1.13
2023-03-13T22:21:10.938Z,1.90
2023-03-13T22:23:41.559Z,1.40
2023-03-13T22:26:14.488Z,1.87
2023-03-13T22:28:42.305Z,1.90
2023-03-13T22:31:11.547Z,2.93
2023-03-13T22:33:42.133Z,1.87
2023-03-13T22:36:10.428Z,2.00
2023-03-13T22:38:40.857Z,2.50
2023-03-13T22:41:11.486Z,1.80
2023-03-13T22:43:42.384Z,2.70
2023-03-13T22:46:11.344Z,6.13
2023-03-13T22:48:39.752Z,5.73
2023-03-13T22:51:10.011Z,5.27
2023-03-13T22:53:39.723Z,6.23
2023-03-13T22:56:11.973Z,6.20
2023-03-13T22:58:41.172Z,4.13
2023-03-13T23:01:17.353Z,3.50
2023-03-13T23:03:46.965Z,3.37
2023-03-13T23:06:23.684Z,6.27
2023-03-13T23:08:51.782Z,5.57
2023-03-13T23:11:20.534Z,7.57
2023-03-13T23:13:48.553Z,8.23
2023-03-13T23:16:16.278Z,5.13
2023-03-13T23:18:44.877Z,6.20
2023-03-13T23:21:15.186Z,6.37
2023-03-13T23:23:47.118Z,3.90
2023-03-13T23:26:18.633Z,3.60
2023-03-13T23:28:49.051Z,3.83
2023-03-13T23:31:19.279Z,5.20
2023-03-13T23:33:47.768Z,5.90
2023-03-13T23:36:18.123Z,6.10
2023-03-13T23:38:49.814Z,4.37
2023-03-13T23:41:17.762Z,5.63
2023-03-13T23:43:45.513Z,5.27
2023-03-13T23:46:28.313Z,4.63
2023-03-13T23:48:57.884Z,2.93
2023-03-13T23:51:29.064Z,2.97
2023-03-13T23:53:58.391Z,5.27
2023-03-13T23:56:26.210Z,3.27
2023-03-13T23:58:54.550Z,2.77
